Brezno, Slovakia
Current Conditions -  °F | °C
As of 3:00 AM on Tuesday 27 Jan 2015 (Local Time) from LZSL Reporting Station
Scattered Clouds Scattered Clouds  
Wind Chill: 30°   Ceiling: Unl
Heat Index: 30°   Visibility: 6mi
Dew Point: 28°   Wind: 1mph
Humidity: 93%   Direction: 190°S
Pressure: 30.03"   Gusts: NA
Location:  48.81°N, 19.64°E
Report Text: LZSL 270100Z 19001KT 9999 SCT034 M01/M02 Q1017
Loading
Personal Weather Stations






























Interactive Weather Map New forecast layout! Learn more

10-Day Weather Forecast

Advertisements
Track Severe Weather on mobile